createdAt,value
2023-10-06T00:00:31.719Z,97892.31
2023-10-06T00:01:34.848Z,97889.91
2023-10-06T00:02:36.852Z,97896.31
2023-10-06T00:03:40.354Z,97892.72
2023-10-06T00:04:42.876Z,97889.47
2023-10-06T00:05:51.569Z,97897.53
2023-10-06T00:06:55.421Z,97902.19
2023-10-06T00:07:58.526Z,97894.53
2023-10-06T00:09:00.898Z,97898.34
2023-10-06T00:10:05.185Z,97895.31
2023-10-06T00:11:13.088Z,97899.75
2023-10-06T00:12:14.932Z,97895.13
2023-10-06T00:13:20.530Z,97899.97
2023-10-06T00:14:40.715Z,97903.22
2023-10-06T00:15:45.039Z,97897.16
2023-10-06T00:16:47.925Z,97904.00
2023-10-06T00:17:50.738Z,97904.00
2023-10-06T00:18:54.495Z,97903.03
2023-10-06T00:19:58.308Z,97901.00
2023-10-06T00:21:08.445Z,97909.25
2023-10-06T00:22:10.646Z,97910.88
2023-10-06T00:23:16.215Z,97903.03
2023-10-06T00:24:18.253Z,97893.50
2023-10-06T00:25:29.294Z,97911.69
2023-10-06T00:26:31.133Z,97910.47
2023-10-06T00:27:33.270Z,97905.84
2023-10-06T00:28:37.617Z,97912.53
2023-10-06T00:29:40.362Z,97917.56
2023-10-06T00:30:42.219Z,97908.69
2023-10-06T00:31:49.025Z,97906.44
2023-10-06T00:32:50.946Z,97910.69
2023-10-06T00:33:54.212Z,97906.44
2023-10-06T00:35:18.427Z,97907.06
2023-10-06T00:36:20.844Z,97905.44
2023-10-06T00:37:26.136Z,97907.06
2023-10-06T00:38:31.782Z,97913.94
2023-10-06T00:39:34.409Z,97907.66
2023-10-06T00:40:37.182Z,97907.66
2023-10-06T00:41:39.213Z,97910.09
2023-10-06T00:42:41.942Z,97902.03
2023-10-06T00:43:46.849Z,97902.03
2023-10-06T00:44:49.040Z,97906.25
2023-10-06T00:45:50.789Z,97896.56
2023-10-06T00:46:52.628Z,97900.19
2023-10-06T00:47:55.301Z,97902.81
2023-10-06T00:49:00.806Z,97893.13
2023-10-06T00:50:06.961Z,97900.78
2023-10-06T00:51:21.161Z,97900.00
2023-10-06T00:52:23.266Z,97900.78
2023-10-06T00:53:32.906Z,97896.34
2023-10-06T00:54:35.410Z,97898.59
2023-10-06T00:55:38.855Z,97898.19
2023-10-06T00:56:40.696Z,97907.47
2023-10-06T00:57:42.480Z,97899.38
2023-10-06T00:58:44.661Z,97905.84
2023-10-06T00:59:46.638Z,97902.19
2023-10-06T01:00:48.466Z,97896.56
2023-10-06T01:01:51.463Z,97902.19
2023-10-06T01:02:53.430Z,97902.97
2023-10-06T01:04:09.688Z,97903.97
2023-10-06T01:05:11.686Z,97903.78
2023-10-06T01:06:16.465Z,97900.97
2023-10-06T01:07:19.092Z,97908.66
2023-10-06T01:08:22.390Z,97900.78
2023-10-06T01:09:31.643Z,97900.16
2023-10-06T01:10:36.433Z,97902.97
2023-10-06T01:11:48.624Z,97905.78
2023-10-06T01:12:53.516Z,97902.56
2023-10-06T01:13:59.155Z,97893.28
2023-10-06T01:15:17.455Z,97907.19
2023-10-06T01:16:19.684Z,97903.59
2023-10-06T01:17:21.939Z,97902.75
2023-10-06T01:18:28.894Z,97900.34
2023-10-06T01:19:34.611Z,97895.09
2023-10-06T01:20:43.033Z,97891.66
2023-10-06T01:21:48.504Z,97898.91
2023-10-06T01:22:57.247Z,97908.59
2023-10-06T01:23:59.856Z,97894.47
2023-10-06T01:25:05.914Z,97903.53
2023-10-06T01:26:09.563Z,97901.53
2023-10-06T01:27:12.677Z,97899.28
2023-10-06T01:28:14.848Z,97899.47
2023-10-06T01:29:16.723Z,97901.47
2023-10-06T01:30:19.264Z,97904.94
2023-10-06T01:31:21.339Z,97907.34
2023-10-06T01:32:23.167Z,97906.16
2023-10-06T01:33:26.442Z,97904.09
2023-10-06T01:34:28.913Z,97906.72
2023-10-06T01:35:35.008Z,97908.53
2023-10-06T01:36:37.509Z,97912.56
2023-10-06T01:37:45.372Z,97901.88
2023-10-06T01:38:47.208Z,97903.50
2023-10-06T01:39:49.918Z,97901.88
2023-10-06T01:40:54.753Z,97909.16
2023-10-06T01:41:57.361Z,97903.91
2023-10-06T01:42:59.117Z,97903.91
2023-10-06T01:44:01.977Z,97899.03
2023-10-06T01:45:18.001Z,97912.56
2023-10-06T01:46:21.273Z,97910.31
2023-10-06T01:47:23.046Z,97904.44
2023-10-06T01:48:24.902Z,97906.09
2023-10-06T01:49:26.768Z,97902.44
2023-10-06T01:50:28.773Z,97904.25
2023-10-06T01:51:37.331Z,97914.56
2023-10-06T01:52:41.837Z,97906.69
2023-10-06T01:53:44.011Z,97907.69
2023-10-06T01:54:46.422Z,97915.38
2023-10-06T01:55:50.649Z,97915.97
2023-10-06T01:56:55.297Z,97913.34
2023-10-06T01:57:58.440Z,97912.13
2023-10-06T01:59:00.409Z,97906.88
2023-10-06T02:00:02.417Z,97907.69
2023-10-06T02:01:07.814Z,97913.34
2023-10-06T02:02:14.411Z,97912.16
2023-10-06T02:03:23.018Z,97912.97
2023-10-06T02:04:26.904Z,97916.78
2023-10-06T02:05:29.127Z,97910.72
2023-10-06T02:06:30.931Z,97914.16
2023-10-06T02:07:36.927Z,97912.16
2023-10-06T02:08:39.783Z,97916.41
2023-10-06T02:09:41.578Z,97915.38
2023-10-06T02:10:49.032Z,97920.63
2023-10-06T02:11:51.195Z,97913.38
2023-10-06T02:12:52.984Z,97913.38
2023-10-06T02:13:54.908Z,97909.75
2023-10-06T02:14:57.942Z,97908.97
2023-10-06T02:16:02.879Z,97913.38
2023-10-06T02:17:08.012Z,97915.38
2023-10-06T02:18:14.037Z,97917.81
2023-10-06T02:19:18.878Z,97915.38
2023-10-06T02:20:26.728Z,97918.00
2023-10-06T02:21:30.355Z,97915.38
2023-10-06T02:22:32.216Z,97918.78
2023-10-06T02:23:38.857Z,97914.94
2023-10-06T02:24:41.050Z,97920.78
2023-10-06T02:25:42.851Z,97920.16
2023-10-06T02:26:46.332Z,97915.94
2023-10-06T02:27:49.171Z,97918.13
2023-10-06T02:28:51.116Z,97915.09
2023-10-06T02:29:53.266Z,97912.81
2023-10-06T02:30:56.756Z,97910.34
2023-10-06T02:32:09.003Z,97908.72
2023-10-06T02:33:12.724Z,97910.34
2023-10-06T02:34:20.215Z,97906.50
2023-10-06T02:35:22.212Z,97907.97
2023-10-06T02:36:24.129Z,97910.34
2023-10-06T02:37:27.067Z,97910.13
2023-10-06T02:38:39.471Z,97904.03
2023-10-06T02:39:44.844Z,97903.84
2023-10-06T02:40:47.264Z,97907.91
2023-10-06T02:41:50.428Z,97905.88
2023-10-06T02:42:54.848Z,97910.00
2023-10-06T02:43:57.169Z,97913.41
2023-10-06T02:44:59.549Z,97902.75
2023-10-06T02:46:09.348Z,97905.34
2023-10-06T02:47:12.020Z,97903.53
2023-10-06T02:48:18.955Z,97902.13
2023-10-06T02:49:33.285Z,97907.91
2023-10-06T02:50:35.554Z,97907.69
2023-10-06T02:51:49.569Z,97903.03
2023-10-06T02:52:55.185Z,97907.22
2023-10-06T02:54:11.588Z,97904.78
2023-10-06T02:55:14.597Z,97908.22
2023-10-06T02:56:17.464Z,97909.84
2023-10-06T02:57:22.018Z,97902.78
2023-10-06T02:58:32.199Z,97910.66
2023-10-06T02:59:36.086Z,97902.16
2023-10-06T03:00:37.753Z,97909.00
2023-10-06T03:01:40.232Z,97909.00
2023-10-06T03:02:42.185Z,97906.22
2023-10-06T03:03:43.954Z,97913.25
2023-10-06T03:04:45.903Z,97917.50
2023-10-06T03:05:54.258Z,97926.38
2023-10-06T03:06:58.318Z,97918.06
2023-10-06T03:08:02.340Z,97918.25
2023-10-06T03:09:08.565Z,97925.94
2023-10-06T03:10:11.861Z,97924.72
2023-10-06T03:11:24.007Z,97921.13
2023-10-06T03:12:25.683Z,97916.69
2023-10-06T03:13:38.321Z,97915.88
2023-10-06T03:14:40.282Z,97924.56
2023-10-06T03:15:48.009Z,97918.31
2023-10-06T03:16:52.982Z,97919.13
2023-10-06T03:17:59.919Z,97920.75
2023-10-06T03:19:02.623Z,97922.38
2023-10-06T03:20:11.984Z,97927.78
2023-10-06T03:21:13.735Z,97918.88
2023-10-06T03:22:15.602Z,97926.13
2023-10-06T03:23:37.872Z,97930.56
2023-10-06T03:24:45.868Z,97929.56
2023-10-06T03:25:50.734Z,97930.38
2023-10-06T03:26:52.920Z,97927.56
2023-10-06T03:27:55.947Z,97928.38
2023-10-06T03:29:03.771Z,97934.41
2023-10-06T03:30:12.945Z,97929.16
2023-10-06T03:31:20.641Z,97931.59
2023-10-06T03:32:34.600Z,97933.22
2023-10-06T03:33:36.759Z,97929.00
2023-10-06T03:34:38.611Z,97931.00
2023-10-06T03:35:48.266Z,97927.75
2023-10-06T03:36:53.424Z,97931.34
2023-10-06T03:38:10.605Z,97932.38
2023-10-06T03:39:13.073Z,97929.75
2023-10-06T03:40:23.116Z,97927.75
2023-10-06T03:41:33.814Z,97928.56
2023-10-06T03:42:38.492Z,97929.97
2023-10-06T03:43:51.841Z,97927.94
2023-10-06T03:44:54.397Z,97933.38
2023-10-06T03:45:56.105Z,97930.34
2023-10-06T03:47:02.137Z,97928.88
2023-10-06T03:48:10.012Z,97931.31
2023-10-06T03:49:14.893Z,97932.97
2023-10-06T03:50:17.913Z,97938.13
2023-10-06T03:51:20.230Z,97937.50
2023-10-06T03:52:22.041Z,97933.09
2023-10-06T03:53:25.585Z,97941.59
2023-10-06T03:54:27.328Z,97940.38
2023-10-06T03:55:29.158Z,97934.97
2023-10-06T03:56:31.721Z,97933.09
2023-10-06T03:57:33.497Z,97928.66
2023-10-06T03:58:35.488Z,97937.50
2023-10-06T03:59:37.490Z,97937.34
2023-10-06T04:00:48.946Z,97930.50
2023-10-06T04:01:52.916Z,97928.84
2023-10-06T04:02:55.429Z,97936.09
2023-10-06T04:04:01.114Z,97937.91
2023-10-06T04:05:06.583Z,97937.50
2023-10-06T04:06:14.231Z,97931.28
2023-10-06T04:07:17.458Z,97941.78
2023-10-06T04:08:22.811Z,97940.97
2023-10-06T04:09:32.245Z,97937.72
2023-10-06T04:10:35.521Z,97938.72
2023-10-06T04:11:37.277Z,97934.84
2023-10-06T04:12:39.076Z,97936.41
2023-10-06T04:13:41.167Z,97935.81
2023-10-06T04:14:44.140Z,97932.56
2023-10-06T04:15:53.816Z,97930.34
2023-10-06T04:16:56.008Z,97931.31
2023-10-06T04:17:59.054Z,97925.28
2023-10-06T04:19:01.009Z,97922.47
2023-10-06T04:20:07.348Z,97921.47
2023-10-06T04:21:13.027Z,97921.09
2023-10-06T04:22:15.400Z,97925.94
2023-10-06T04:23:24.692Z,97928.19
2023-10-06T04:24:26.867Z,97932.22
2023-10-06T04:25:28.673Z,97922.97
2023-10-06T04:26:31.734Z,97931.44
2023-10-06T04:27:34.227Z,97935.03
2023-10-06T04:28:36.907Z,97933.88
2023-10-06T04:29:41.119Z,97941.50
2023-10-06T04:30:46.600Z,97943.16
2023-10-06T04:31:49.201Z,97944.75
2023-10-06T04:32:51.051Z,97942.13
2023-10-06T04:33:55.217Z,97948.19
2023-10-06T04:34:59.025Z,97939.91
2023-10-06T04:36:11.228Z,97943.72
2023-10-06T04:38:16.610Z,97942.28
2023-10-06T04:39:21.308Z,97945.91
2023-10-06T04:40:23.256Z,97949.16
2023-10-06T04:41:24.991Z,97935.03
2023-10-06T04:42:26.785Z,97939.91
2023-10-06T04:43:28.581Z,97931.88
2023-10-06T04:44:30.431Z,97939.50
2023-10-06T04:45:33.159Z,97931.66
2023-10-06T04:46:36.544Z,97937.50
2023-10-06T04:47:41.827Z,97943.59
2023-10-06T04:48:43.719Z,97934.28
2023-10-06T04:49:47.393Z,97944.13
2023-10-06T04:50:51.955Z,97942.28
2023-10-06T04:51:53.698Z,97951.16
2023-10-06T04:52:56.408Z,97948.53
2023-10-06T04:53:58.453Z,97955.38
2023-10-06T04:55:00.377Z,97961.63
2023-10-06T04:56:04.909Z,97953.78
2023-10-06T04:57:09.763Z,97950.13
2023-10-06T04:58:15.041Z,97958.00
2023-10-06T04:59:17.507Z,97955.78
2023-10-06T05:00:23.036Z,97951.06
2023-10-06T05:01:24.863Z,97951.91
2023-10-06T05:02:27.186Z,97952.53
2023-10-06T05:03:29.417Z,97955.94
2023-10-06T05:04:31.604Z,97953.50
2023-10-06T05:05:39.226Z,97955.94
2023-10-06T05:06:41.104Z,97953.16
2023-10-06T05:07:42.856Z,97953.78
2023-10-06T05:08:48.564Z,97951.78
2023-10-06T05:09:51.094Z,97957.63
2023-10-06T05:10:54.416Z,97956.25
2023-10-06T05:11:58.463Z,97958.88
2023-10-06T05:13:07.224Z,97962.09
2023-10-06T05:14:10.407Z,97963.72
2023-10-06T05:15:16.497Z,97959.31
2023-10-06T05:16:20.574Z,97969.72
2023-10-06T05:17:23.251Z,97963.22
2023-10-06T05:18:25.860Z,97968.47
2023-10-06T05:19:28.121Z,97963.22
2023-10-06T05:20:34.078Z,97966.47
2023-10-06T05:21:37.969Z,97967.31
2023-10-06T05:22:39.766Z,97962.88
2023-10-06T05:23:42.775Z,97962.88
2023-10-06T05:24:44.599Z,97967.09
2023-10-06T05:25:46.567Z,97967.09
2023-10-06T05:26:50.615Z,97962.69
2023-10-06T05:27:52.413Z,97967.91
2023-10-06T05:28:54.241Z,97967.91
2023-10-06T05:29:56.073Z,97972.16
2023-10-06T05:30:58.164Z,97979.81
2023-10-06T05:32:01.047Z,97977.03
2023-10-06T05:33:04.695Z,97975.38
2023-10-06T05:34:08.661Z,97974.75
2023-10-06T05:35:11.907Z,97975.97
2023-10-06T05:36:17.454Z,97972.53
2023-10-06T05:37:22.182Z,97982.19
2023-10-06T05:38:25.274Z,97977.97
2023-10-06T05:39:29.368Z,97978.75
2023-10-06T05:40:31.317Z,97976.16
2023-10-06T05:41:33.844Z,97972.31
2023-10-06T05:42:37.708Z,97974.59
2023-10-06T05:43:40.687Z,97970.94
2023-10-06T05:44:43.733Z,97977.44
2023-10-06T05:45:58.420Z,97973.03
2023-10-06T05:47:00.897Z,97974.81
2023-10-06T05:48:08.436Z,97981.88
2023-10-06T05:49:12.650Z,97977.63
2023-10-06T05:50:28.466Z,97982.66
2023-10-06T05:51:32.311Z,97983.06
2023-10-06T05:52:34.075Z,97973.97
2023-10-06T05:53:40.355Z,97982.81
2023-10-06T05:54:42.474Z,97980.19
2023-10-06T05:55:44.334Z,97983.44
2023-10-06T05:56:48.633Z,97990.28
2023-10-06T05:57:57.181Z,97991.72
2023-10-06T05:58:59.050Z,97996.34
2023-10-06T06:00:02.403Z,97994.53
2023-10-06T06:01:15.902Z,97996.53
2023-10-06T06:02:19.797Z,98001.34
2023-10-06T06:03:27.482Z,97989.41
2023-10-06T06:04:29.643Z,97988.25
2023-10-06T06:05:37.310Z,97997.53
2023-10-06T06:06:41.088Z,98002.34
2023-10-06T06:07:43.860Z,97992.88
2023-10-06T06:08:49.201Z,98003.34
2023-10-06T06:09:51.527Z,98012.19
2023-10-06T06:10:53.873Z,98000.53
2023-10-06T06:11:55.718Z,98006.19
2023-10-06T06:12:57.839Z,98011.25
2023-10-06T06:14:15.259Z,98011.25
2023-10-06T06:15:19.675Z,98010.25
2023-10-06T06:16:23.090Z,98015.13
2023-10-06T06:17:25.090Z,98014.94
2023-10-06T06:18:28.937Z,98018.34
2023-10-06T06:19:30.735Z,98016.34
2023-10-06T06:20:32.600Z,98014.72
2023-10-06T06:21:34.435Z,98008.69
2023-10-06T06:22:40.009Z,98013.91
2023-10-06T06:23:47.641Z,98010.50
2023-10-06T06:24:51.193Z,98014.53
2023-10-06T06:25:53.050Z,98011.75
2023-10-06T06:26:54.881Z,98017.97
2023-10-06T06:28:00.617Z,98016.97
2023-10-06T06:29:04.414Z,98017.78
2023-10-06T06:30:07.084Z,98016.97
2023-10-06T06:31:16.159Z,98022.59
2023-10-06T06:32:18.668Z,98022.59
2023-10-06T06:33:24.017Z,98021.41
2023-10-06T06:34:26.273Z,98028.06
2023-10-06T06:35:29.568Z,98013.16
2023-10-06T06:36:33.323Z,98014.97
2023-10-06T06:37:35.561Z,98016.41
2023-10-06T06:38:40.945Z,98011.78
2023-10-06T06:39:45.985Z,98015.03
2023-10-06T06:40:47.812Z,98017.41
2023-10-06T06:41:49.667Z,98016.41
2023-10-06T06:42:54.727Z,98013.41
2023-10-06T06:43:59.941Z,98012.59
2023-10-06T06:45:02.490Z,98012.81
2023-10-06T06:46:04.904Z,98013.78
2023-10-06T06:47:07.240Z,98017.41
2023-10-06T06:48:14.876Z,98019.81
2023-10-06T06:49:17.084Z,98015.59
2023-10-06T06:50:19.103Z,98020.22
2023-10-06T06:51:21.868Z,98018.59
2023-10-06T06:52:24.033Z,98021.81
2023-10-06T06:53:25.878Z,98023.81
2023-10-06T06:54:28.037Z,98015.97
2023-10-06T06:55:30.081Z,98011.97
2023-10-06T06:56:33.118Z,98021.06
2023-10-06T06:57:34.841Z,98017.28
2023-10-06T06:58:38.577Z,98017.66
2023-10-06T06:59:40.552Z,98012.72
2023-10-06T07:00:42.543Z,98024.56
2023-10-06T07:01:44.386Z,98024.22
2023-10-06T07:02:51.617Z,98016.97
2023-10-06T07:03:53.438Z,98020.78
2023-10-06T07:04:56.622Z,98021.34
2023-10-06T07:05:58.985Z,98027.16
2023-10-06T07:07:02.497Z,98024.47
2023-10-06T07:08:07.428Z,98023.47
2023-10-06T07:09:14.291Z,98027.94
2023-10-06T07:10:21.329Z,98028.22
2023-10-06T07:11:23.809Z,98029.28
2023-10-06T07:12:25.720Z,98026.09
2023-10-06T07:13:27.839Z,98028.13
2023-10-06T07:14:29.707Z,98023.50
2023-10-06T07:15:31.449Z,98017.81
2023-10-06T07:16:34.708Z,98016.66
2023-10-06T07:17:36.504Z,98016.44
2023-10-06T07:18:39.209Z,98017.06
2023-10-06T07:19:41.163Z,98015.47
2023-10-06T07:20:42.992Z,98010.81
2023-10-06T07:21:45.529Z,98018.66
2023-10-06T07:22:48.084Z,98021.03
2023-10-06T07:23:53.472Z,98021.81
2023-10-06T07:24:56.944Z,98022.69
2023-10-06T07:25:59.431Z,98020.69
2023-10-06T07:27:01.168Z,98030.56
2023-10-06T07:28:02.954Z,98029.97
2023-10-06T07:29:07.342Z,98036.69
2023-10-06T07:30:12.562Z,98026.81
2023-10-06T07:31:15.232Z,98032.09
2023-10-06T07:32:17.652Z,98033.34
2023-10-06T07:33:19.420Z,98029.69
2023-10-06T07:34:21.411Z,98029.91
2023-10-06T07:35:33.122Z,98036.75
2023-10-06T07:36:37.220Z,98039.03
2023-10-06T07:37:39.855Z,98029.97
2023-10-06T07:38:44.949Z,98037.25
2023-10-06T07:39:48.309Z,98030.63
2023-10-06T07:40:50.474Z,98030.25
2023-10-06T07:41:52.269Z,98028.25
2023-10-06T07:42:56.627Z,98023.03
2023-10-06T07:43:58.384Z,98035.09
2023-10-06T07:45:00.545Z,98026.63
2023-10-06T07:46:09.178Z,98028.25
2023-10-06T07:47:12.086Z,98031.25
2023-10-06T07:48:14.097Z,98028.63
2023-10-06T07:49:15.833Z,98026.63
2023-10-06T07:50:17.626Z,98027.66
2023-10-06T07:51:20.492Z,98035.09
2023-10-06T07:52:23.202Z,98031.31
2023-10-06T07:53:25.259Z,98033.72
2023-10-06T07:54:27.984Z,98031.50
2023-10-06T07:55:29.816Z,98027.47
2023-10-06T07:56:31.799Z,98035.72
2023-10-06T07:57:34.644Z,98031.53
2023-10-06T07:58:42.355Z,98025.09
2023-10-06T07:59:44.257Z,98026.72
2023-10-06T08:00:46.433Z,98029.34
2023-10-06T08:01:49.884Z,98025.69
2023-10-06T08:02:51.721Z,98033.56
2023-10-06T08:03:55.170Z,98024.31
2023-10-06T08:04:57.569Z,98038.03
2023-10-06T08:06:02.666Z,98035.03
2023-10-06T08:07:04.425Z,98031.84
2023-10-06T08:08:06.455Z,98032.22
2023-10-06T08:09:09.764Z,98029.81
2023-10-06T08:10:16.085Z,98032.22
2023-10-06T08:11:19.861Z,98032.63
2023-10-06T08:12:24.614Z,98028.84
2023-10-06T08:13:26.638Z,98029.25
2023-10-06T08:14:29.784Z,98033.31
2023-10-06T08:15:34.223Z,98034.13
2023-10-06T08:16:38.619Z,98028.94
2023-10-06T08:17:40.813Z,98034.19
2023-10-06T08:18:42.648Z,98034.41
2023-10-06T08:19:44.466Z,98024.94
2023-10-06T08:20:47.438Z,98030.63
2023-10-06T08:21:49.158Z,98029.22
2023-10-06T08:22:50.991Z,98021.75
2023-10-06T08:23:52.815Z,98025.38
2023-10-06T08:24:54.800Z,98026.22
2023-10-06T08:26:01.316Z,98022.38
2023-10-06T08:27:04.602Z,98026.56
2023-10-06T08:28:08.646Z,98022.53
2023-10-06T08:29:10.538Z,98018.09
2023-10-06T08:30:22.948Z,98012.44
2023-10-06T08:31:26.481Z,98007.41
2023-10-06T08:32:28.237Z,98011.25
2023-10-06T08:33:30.875Z,98014.50
2023-10-06T08:34:32.808Z,98009.06
2023-10-06T08:35:34.622Z,98012.69
2023-10-06T08:36:39.381Z,98000.78
2023-10-06T08:37:42.742Z,97995.13
2023-10-06T08:38:48.236Z,98002.81
2023-10-06T08:39:50.439Z,97995.81
2023-10-06T08:40:55.660Z,98001.06
2023-10-06T08:41:57.536Z,98002.66
2023-10-06T08:42:59.544Z,97995.22
2023-10-06T08:44:03.746Z,97994.00
2023-10-06T08:45:05.794Z,97988.53
2023-10-06T08:46:08.406Z,97993.00
2023-10-06T08:47:26.308Z,97995.00
2023-10-06T08:48:33.746Z,97987.34
2023-10-06T08:49:35.864Z,97985.13
2023-10-06T08:50:38.779Z,97982.28
2023-10-06T08:51:43.739Z,97975.00
2023-10-06T08:52:51.465Z,97974.41
2023-10-06T08:53:57.486Z,97974.81
2023-10-06T08:55:00.350Z,97976.19
2023-10-06T08:56:02.125Z,97972.16
2023-10-06T08:57:04.643Z,97966.06
2023-10-06T08:58:08.759Z,97965.09
2023-10-06T08:59:12.641Z,97967.28
2023-10-06T09:00:17.999Z,97961.19
2023-10-06T09:01:19.907Z,97960.56
2023-10-06T09:02:22.802Z,97958.75
2023-10-06T09:03:28.226Z,97957.72
2023-10-06T09:04:36.278Z,97960.34
2023-10-06T09:05:41.871Z,97958.91
2023-10-06T09:07:03.804Z,97957.88
2023-10-06T09:08:06.748Z,97960.06
2023-10-06T09:09:13.896Z,97949.78
2023-10-06T09:10:18.917Z,97952.75
2023-10-06T09:11:37.924Z,97949.50
2023-10-06T09:12:43.880Z,97946.63
2023-10-06T09:13:47.318Z,97957.13
2023-10-06T09:14:55.941Z,97950.22
2023-10-06T09:16:01.060Z,97953.81
2023-10-06T09:17:03.188Z,97962.91
2023-10-06T09:18:21.387Z,97949.94
2023-10-06T09:19:23.208Z,97952.72
2023-10-06T09:20:34.058Z,97946.59
2023-10-06T09:21:35.845Z,97941.31
2023-10-06T09:22:47.038Z,97942.97
2023-10-06T09:23:50.837Z,97936.25
2023-10-06T09:25:05.973Z,97929.09
2023-10-06T09:26:08.871Z,97929.06
2023-10-06T09:27:21.325Z,97929.78
2023-10-06T09:28:23.174Z,97924.09
2023-10-06T09:29:39.931Z,97919.84
2023-10-06T09:30:51.643Z,97915.91
2023-10-06T09:31:53.669Z,97919.53
2023-10-06T09:33:06.400Z,97917.91
2023-10-06T09:34:11.149Z,97916.06
2023-10-06T09:35:23.766Z,97918.25
2023-10-06T09:36:42.679Z,97923.81
2023-10-06T09:37:48.124Z,97918.88
2023-10-06T09:38:50.538Z,97912.50
2023-10-06T09:40:00.061Z,97905.13
2023-10-06T09:41:02.093Z,97908.94
2023-10-06T09:42:07.430Z,97904.38
2023-10-06T09:43:13.125Z,97901.44
2023-10-06T09:44:15.489Z,97903.19
2023-10-06T09:45:22.397Z,97901.72
2023-10-06T09:46:27.111Z,97898.78
2023-10-06T09:47:29.520Z,97896.28
2023-10-06T09:48:35.412Z,97900.88
2023-10-06T09:49:38.903Z,97897.34
2023-10-06T09:50:42.713Z,97893.63
2023-10-06T09:51:44.549Z,97896.63
2023-10-06T09:52:48.709Z,97893.19
2023-10-06T09:53:51.046Z,97887.03
2023-10-06T09:54:56.015Z,97883.00
2023-10-06T09:55:59.391Z,97876.59
2023-10-06T09:57:03.501Z,97874.44
2023-10-06T09:58:06.985Z,97875.16
2023-10-06T09:59:15.438Z,97871.03
2023-10-06T10:00:19.192Z,97867.59
2023-10-06T10:01:25.665Z,97871.47
2023-10-06T10:02:31.055Z,97867.59
2023-10-06T10:03:35.877Z,97866.22
2023-10-06T10:04:38.425Z,97853.13
2023-10-06T10:05:41.122Z,97863.81
2023-10-06T10:06:46.533Z,97866.94
2023-10-06T10:07:51.734Z,97874.75
2023-10-06T10:08:53.504Z,97875.69
2023-10-06T10:09:55.970Z,97883.50
2023-10-06T10:11:01.583Z,97880.16
2023-10-06T10:12:24.722Z,97876.81
2023-10-06T10:13:40.653Z,97874.41
2023-10-06T10:14:50.861Z,97876.13
2023-10-06T10:16:12.850Z,97865.84
2023-10-06T10:17:19.946Z,97859.63
2023-10-06T10:18:30.981Z,97860.31
2023-10-06T10:19:33.296Z,97857.50
2023-10-06T10:20:35.958Z,97856.13
2023-10-06T10:21:38.678Z,97855.19
2023-10-06T10:22:42.241Z,97847.47
2023-10-06T10:23:45.310Z,97851.97
2023-10-06T10:25:53.406Z,97862.03
2023-10-06T10:26:56.042Z,97860.66
2023-10-06T10:28:19.171Z,97866.03
2023-10-06T10:29:20.886Z,97867.97
2023-10-06T10:30:42.930Z,97862.28
2023-10-06T10:31:59.722Z,97859.03
2023-10-06T10:33:07.891Z,97859.88
2023-10-06T10:34:24.384Z,97857.34
2023-10-06T10:35:27.121Z,97851.06
2023-10-06T10:36:28.986Z,97849.31
2023-10-06T10:37:32.023Z,97851.78
2023-10-06T10:38:34.446Z,97848.69
2023-10-06T10:39:52.555Z,97846.81
2023-10-06T10:40:54.316Z,97844.00
2023-10-06T10:42:00.324Z,97837.97
2023-10-06T10:43:07.016Z,97840.94
2023-10-06T10:44:25.259Z,97841.06
2023-10-06T10:45:32.123Z,97841.13
2023-10-06T10:46:46.168Z,97850.75
2023-10-06T10:47:50.419Z,97846.88
2023-10-06T10:48:54.088Z,97843.75
2023-10-06T10:49:57.249Z,97846.22
2023-10-06T10:51:01.216Z,97843.63
2023-10-06T10:52:06.804Z,97845.88
2023-10-06T10:53:08.689Z,97845.38
2023-10-06T10:54:12.829Z,97838.03
2023-10-06T10:55:14.695Z,97840.19
2023-10-06T10:56:38.456Z,97828.28
2023-10-06T10:57:46.056Z,97823.28
2023-10-06T10:58:49.705Z,97817.50
2023-10-06T11:00:01.574Z,97818.59
2023-10-06T11:01:24.260Z,97815.97
2023-10-06T11:02:35.747Z,97806.75
2023-10-06T11:03:38.927Z,97811.78
2023-10-06T11:04:42.320Z,97812.34
2023-10-06T11:05:45.610Z,97803.88
2023-10-06T11:06:50.587Z,97809.81
2023-10-06T11:07:59.470Z,97803.47
2023-10-06T11:09:14.572Z,97809.31
2023-10-06T11:10:17.950Z,97799.94
2023-10-06T11:11:20.552Z,97795.97
2023-10-06T11:12:25.922Z,97807.78
2023-10-06T11:13:44.097Z,97800.91
2023-10-06T11:15:04.122Z,97787.41
2023-10-06T11:16:06.276Z,97787.50
2023-10-06T11:17:09.212Z,97789.72
2023-10-06T11:18:14.617Z,97789.50
2023-10-06T11:19:17.003Z,97785.28
2023-10-06T11:20:24.266Z,97782.13
2023-10-06T11:21:26.600Z,97784.03
2023-10-06T11:22:29.776Z,97787.50
2023-10-06T11:23:45.322Z,97787.50
2023-10-06T11:24:47.957Z,97785.41
2023-10-06T11:25:51.633Z,97787.50
2023-10-06T11:26:53.869Z,97779.59
2023-10-06T11:27:57.917Z,97780.69
2023-10-06T11:29:01.913Z,97771.63
2023-10-06T11:30:09.323Z,97762.63
2023-10-06T11:31:13.400Z,97773.56
2023-10-06T11:32:15.424Z,97778.91
2023-10-06T11:33:20.669Z,97779.97
2023-10-06T11:34:22.617Z,97776.81
2023-10-06T11:35:24.503Z,97767.00
2023-10-06T11:36:27.348Z,97772.38
2023-10-06T11:37:30.575Z,97768.69
2023-10-06T11:38:33.346Z,97762.31
2023-10-06T11:39:35.570Z,97766.06
2023-10-06T11:40:37.399Z,97758.09
2023-10-06T11:41:39.180Z,97756.75
2023-10-06T11:42:42.905Z,97753.88
2023-10-06T11:43:54.322Z,97751.50
2023-10-06T11:44:56.839Z,97756.03
2023-10-06T11:46:06.789Z,97756.06
2023-10-06T11:47:08.635Z,97753.69
2023-10-06T11:48:32.855Z,97744.38
2023-10-06T11:49:34.858Z,97748.09
2023-10-06T11:50:36.747Z,97734.53
2023-10-06T11:51:42.237Z,97735.06
2023-10-06T11:52:47.066Z,97738.00
2023-10-06T11:53:48.962Z,97736.94
2023-10-06T11:54:50.828Z,97735.38
2023-10-06T11:55:54.541Z,97732.22
2023-10-06T11:56:58.399Z,97738.06
2023-10-06T11:58:06.307Z,97734.03
2023-10-06T11:59:19.300Z,97733.53
2023-10-06T12:00:34.387Z,97728.25
2023-10-06T12:01:39.079Z,97735.44
2023-10-06T12:02:48.585Z,97731.19
2023-10-06T12:03:50.598Z,97732.25
2023-10-06T12:04:52.706Z,97730.38
2023-10-06T12:05:56.947Z,97734.38
2023-10-06T12:07:02.057Z,97731.72
2023-10-06T12:08:10.233Z,97724.53
2023-10-06T12:09:24.338Z,97725.56
2023-10-06T12:10:26.881Z,97722.13
2023-10-06T12:11:28.647Z,97722.66
2023-10-06T12:12:30.501Z,97728.25
2023-10-06T12:13:33.457Z,97721.88
2023-10-06T12:14:36.223Z,97722.13
2023-10-06T12:15:38.046Z,97730.66
2023-10-06T12:16:39.848Z,97723.19
2023-10-06T12:17:42.549Z,97726.41
2023-10-06T12:18:45.603Z,97723.19
2023-10-06T12:19:47.847Z,97724.81
2023-10-06T12:20:49.751Z,97716.28
2023-10-06T12:21:52.400Z,97722.69
2023-10-06T12:22:55.366Z,97720.03
2023-10-06T12:23:57.172Z,97714.16
2023-10-06T12:24:59.024Z,97715.22
2023-10-06T12:26:01.226Z,97714.13
2023-10-06T12:27:04.736Z,97705.09
2023-10-06T12:28:06.864Z,97710.97
2023-10-06T12:29:08.647Z,97702.69
2023-10-06T12:30:19.474Z,97705.63
2023-10-06T12:31:24.304Z,97698.69
2023-10-06T12:32:26.082Z,97696.00
2023-10-06T12:33:27.893Z,97695.22
2023-10-06T12:34:29.683Z,97690.66
2023-10-06T12:35:31.921Z,97699.69
2023-10-06T12:36:33.660Z,97693.91
2023-10-06T12:37:36.066Z,97696.56
2023-10-06T12:38:37.814Z,97694.13
2023-10-06T12:39:39.600Z,97689.56
2023-10-06T12:40:42.454Z,97692.75
2023-10-06T12:41:47.814Z,97692.50
2023-10-06T12:42:49.721Z,97690.63